sensor_id;sensor_type;location;lat;lon;timestamp;temperature;humidity
65291;SHT30;51893;59.754;10.110;2023-12-28T00:00:44;-7.00;78.93
65291;SHT30;51893;59.754;10.110;2023-12-28T00:03:33;-7.02;78.91
65291;SHT30;51893;59.754;10.110;2023-12-28T00:06:01;-6.96;78.92
65291;SHT30;51893;59.754;10.110;2023-12-28T00:08:29;-6.96;78.89
65291;SHT30;51893;59.754;10.110;2023-12-28T00:11:00;-6.91;78.93
65291;SHT30;51893;59.754;10.110;2023-12-28T00:13:28;-6.83;78.81
65291;SHT30;51893;59.754;10.110;2023-12-28T00:15:56;-6.85;78.72
65291;SHT30;51893;59.754;10.110;2023-12-28T00:18:24;-6.89;78.75
65291;SHT30;51893;59.754;10.110;2023-12-28T00:20:53;-6.91;78.90
65291;SHT30;51893;59.754;10.110;2023-12-28T00:23:21;-6.98;79.02
65291;SHT30;51893;59.754;10.110;2023-12-28T00:25:50;-6.98;79.20
65291;SHT30;51893;59.754;10.110;2023-12-28T00:28:18;-6.96;79.25
65291;SHT30;51893;59.754;10.110;2023-12-28T00:30:46;-6.95;79.21
65291;SHT30;51893;59.754;10.110;2023-12-28T00:33:14;-7.06;79.16
65291;SHT30;51893;59.754;10.110;2023-12-28T00:35:42;-7.07;79.37
65291;SHT30;51893;59.754;10.110;2023-12-28T00:38:12;-7.13;79.52
65291;SHT30;51893;59.754;10.110;2023-12-28T00:40:40;-7.16;79.63
65291;SHT30;51893;59.754;10.110;2023-12-28T00:43:08;-7.18;79.76
65291;SHT30;51893;59.754;10.110;2023-12-28T00:45:36;-7.19;79.80
65291;SHT30;51893;59.754;10.110;2023-12-28T00:48:04;-7.20;79.89
65291;SHT30;51893;59.754;10.110;2023-12-28T00:50:33;-7.16;80.11
65291;SHT30;51893;59.754;10.110;2023-12-28T00:53:01;-7.12;80.22
65291;SHT30;51893;59.754;10.110;2023-12-28T00:55:29;-7.08;80.30
65291;SHT30;51893;59.754;10.110;2023-12-28T00:57:57;-7.00;80.27
65291;SHT30;51893;59.754;10.110;2023-12-28T01:00:26;-6.93;80.12
65291;SHT30;51893;59.754;10.110;2023-12-28T01:02:54;-6.79;80.00
65291;SHT30;51893;59.754;10.110;2023-12-28T01:05:22;-6.73;79.76
65291;SHT30;51893;59.754;10.110;2023-12-28T01:07:53;-6.77;79.75
65291;SHT30;51893;59.754;10.110;2023-12-28T01:10:22;-6.72;79.80
65291;SHT30;51893;59.754;10.110;2023-12-28T01:12:51;-6.71;79.81
65291;SHT30;51893;59.754;10.110;2023-12-28T01:15:19;-6.76;79.79
65291;SHT30;51893;59.754;10.110;2023-12-28T01:17:48;-6.64;79.87
65291;SHT30;51893;59.754;10.110;2023-12-28T01:20:16;-6.59;79.71
65291;SHT30;51893;59.754;10.110;2023-12-28T01:22:44;-6.48;79.67
65291;SHT30;51893;59.754;10.110;2023-12-28T01:25:12;-6.45;79.48
65291;SHT30;51893;59.754;10.110;2023-12-28T01:27:40;-6.46;79.40
65291;SHT30;51893;59.754;10.110;2023-12-28T01:30:11;-6.50;79.44
65291;SHT30;51893;59.754;10.110;2023-12-28T01:32:39;-6.51;79.55
65291;SHT30;51893;59.754;10.110;2023-12-28T01:35:07;-6.56;79.68
65291;SHT30;51893;59.754;10.110;2023-12-28T01:37:35;-6.57;79.82
65291;SHT30;51893;59.754;10.110;2023-12-28T01:40:03;-6.60;79.87
65291;SHT30;51893;59.754;10.110;2023-12-28T01:42:33;-6.60;80.02
65291;SHT30;51893;59.754;10.110;2023-12-28T01:45:01;-6.59;80.04
65291;SHT30;51893;59.754;10.110;2023-12-28T01:47:29;-6.54;79.99
65291;SHT30;51893;59.754;10.110;2023-12-28T01:49:59;-6.59;79.97
65291;SHT30;51893;59.754;10.110;2023-12-28T01:52:28;-6.64;80.08
65291;SHT30;51893;59.754;10.110;2023-12-28T01:54:57;-6.70;80.20
65291;SHT30;51893;59.754;10.110;2023-12-28T01:57:26;-6.68;80.38
65291;SHT30;51893;59.754;10.110;2023-12-28T01:59:55;-6.67;80.30
65291;SHT30;51893;59.754;10.110;2023-12-28T02:02:23;-6.70;80.42
65291;SHT30;51893;59.754;10.110;2023-12-28T02:04:52;-6.62;80.59
65291;SHT30;51893;59.754;10.110;2023-12-28T02:07:21;-6.52;80.52
65291;SHT30;51893;59.754;10.110;2023-12-28T02:09:49;-6.44;80.42
65291;SHT30;51893;59.754;10.110;2023-12-28T02:12:19;-6.36;80.38
65291;SHT30;51893;59.754;10.110;2023-12-28T02:14:48;-6.35;80.30
65291;SHT30;51893;59.754;10.110;2023-12-28T02:17:19;-6.22;80.24
65291;SHT30;51893;59.754;10.110;2023-12-28T02:20:00;-6.27;80.00
65291;SHT30;51893;59.754;10.110;2023-12-28T02:22:33;-6.26;80.15
65291;SHT30;51893;59.754;10.110;2023-12-28T02:25:12;-6.17;80.17
65291;SHT30;51893;59.754;10.110;2023-12-28T02:27:49;-6.22;80.04
65291;SHT30;51893;59.754;10.110;2023-12-28T02:30:22;-6.19;80.10
65291;SHT30;51893;59.754;10.110;2023-12-28T02:32:54;-6.15;80.06
65291;SHT30;51893;59.754;10.110;2023-12-28T02:35:59;-6.10;79.79
65291;SHT30;51893;59.754;10.110;2023-12-28T02:38:33;-6.16;79.87
65291;SHT30;51893;59.754;10.110;2023-12-28T02:41:06;-6.16;79.96
65291;SHT30;51893;59.754;10.110;2023-12-28T02:43:36;-6.15;80.02
65291;SHT30;51893;59.754;10.110;2023-12-28T02:46:05;-6.14;80.08
65291;SHT30;51893;59.754;10.110;2023-12-28T02:48:33;-6.12;80.02
65291;SHT30;51893;59.754;10.110;2023-12-28T02:51:06;-6.10;80.08
65291;SHT30;51893;59.754;10.110;2023-12-28T02:53:34;-6.17;80.00
65291;SHT30;51893;59.754;10.110;2023-12-28T02:56:02;-6.25;80.10
65291;SHT30;51893;59.754;10.110;2023-12-28T02:58:31;-6.25;80.21
65291;SHT30;51893;59.754;10.110;2023-12-28T03:01:00;-6.30;80.28
65291;SHT30;51893;59.754;10.110;2023-12-28T03:03:28;-6.30;80.44
65291;SHT30;51893;59.754;10.110;2023-12-28T03:05:56;-6.32;80.40
65291;SHT30;51893;59.754;10.110;2023-12-28T03:08:24;-6.43;80.62
65291;SHT30;51893;59.754;10.110;2023-12-28T03:10:52;-6.46;80.84
65291;SHT30;51893;59.754;10.110;2023-12-28T03:13:22;-6.47;81.01
65291;SHT30;51893;59.754;10.110;2023-12-28T03:15:50;-6.44;81.11
65291;SHT30;51893;59.754;10.110;2023-12-28T03:18:18;-6.47;81.36
65291;SHT30;51893;59.754;10.110;2023-12-28T03:20:47;-6.52;81.74
65291;SHT30;51893;59.754;10.110;2023-12-28T03:23:15;-6.51;81.90
65291;SHT30;51893;59.754;10.110;2023-12-28T03:25:43;-6.46;81.92
65291;SHT30;51893;59.754;10.110;2023-12-28T03:28:12;-6.40;81.89
65291;SHT30;51893;59.754;10.110;2023-12-28T03:30:40;-6.32;81.77
65291;SHT30;51893;59.754;10.110;2023-12-28T03:33:11;-6.30;81.62
65291;SHT30;51893;59.754;10.110;2023-12-28T03:35:39;-6.32;81.68
65291;SHT30;51893;59.754;10.110;2023-12-28T03:38:08;-6.30;81.82
65291;SHT30;51893;59.754;10.110;2023-12-28T03:40:36;-6.23;81.84
65291;SHT30;51893;59.754;10.110;2023-12-28T03:43:05;-6.18;81.80
65291;SHT30;51893;59.754;10.110;2023-12-28T03:45:33;-6.15;81.75
65291;SHT30;51893;59.754;10.110;2023-12-28T03:48:01;-6.12;81.79
65291;SHT30;51893;59.754;10.110;2023-12-28T03:50:29;-6.03;81.80
65291;SHT30;51893;59.754;10.110;2023-12-28T03:52:57;-5.96;81.75
65291;SHT30;51893;59.754;10.110;2023-12-28T03:55:26;-5.90;81.82
65291;SHT30;51893;59.754;10.110;2023-12-28T03:57:54;-5.91;81.84
65291;SHT30;51893;59.754;10.110;2023-12-28T04:00:25;-5.93;82.11
65291;SHT30;51893;59.754;10.110;2023-12-28T04:02:53;-5.87;82.37
65291;SHT30;51893;59.754;10.110;2023-12-28T04:05:21;-5.82;82.48
65291;SHT30;51893;59.754;10.110;2023-12-28T04:07:49;-5.71;82.84
65291;SHT30;51893;59.754;10.110;2023-12-28T04:10:19;-5.56;83.32
65291;SHT30;51893;59.754;10.110;2023-12-28T04:13:00;-5.48;83.53
65291;SHT30;51893;59.754;10.110;2023-12-28T04:15:30;-5.38;83.71
65291;SHT30;51893;59.754;10.110;2023-12-28T04:17:59;-5.23;84.06
65291;SHT30;51893;59.754;10.110;2023-12-28T04:20:28;-5.03;84.75
65291;SHT30;51893;59.754;10.110;2023-12-28T04:22:56;-4.85;85.31
65291;SHT30;51893;59.754;10.110;2023-12-28T04:25:24;-4.73;85.66
65291;SHT30;51893;59.754;10.110;2023-12-28T04:27:52;-4.62;86.08
65291;SHT30;51893;59.754;10.110;2023-12-28T04:30:19;-4.55;86.23
65291;SHT30;51893;59.754;10.110;2023-12-28T04:32:48;-4.48;86.45
65291;SHT30;51893;59.754;10.110;2023-12-28T04:35:16;-4.41;86.53
65291;SHT30;51893;59.754;10.110;2023-12-28T04:37:43;-4.35;86.58
65291;SHT30;51893;59.754;10.110;2023-12-28T04:40:12;-4.29;86.54
65291;SHT30;51893;59.754;10.110;2023-12-28T04:42:42;-4.22;86.64
65291;SHT30;51893;59.754;10.110;2023-12-28T04:45:12;-4.15;86.70
65291;SHT30;51893;59.754;10.110;2023-12-28T04:47:40;-4.10;86.62
65291;SHT30;51893;59.754;10.110;2023-12-28T04:50:10;-4.07;86.58
65291;SHT30;51893;59.754;10.110;2023-12-28T04:52:38;-4.04;86.62
65291;SHT30;51893;59.754;10.110;2023-12-28T04:55:08;-4.01;86.61
65291;SHT30;51893;59.754;10.110;2023-12-28T04:57:36;-3.92;86.60
65291;SHT30;51893;59.754;10.110;2023-12-28T05:00:05;-3.77;86.34
65291;SHT30;51893;59.754;10.110;2023-12-28T05:02:34;-3.67;86.31
65291;SHT30;51893;59.754;10.110;2023-12-28T05:05:03;-3.58;86.23
65291;SHT30;51893;59.754;10.110;2023-12-28T05:07:33;-3.49;86.01
65291;SHT30;51893;59.754;10.110;2023-12-28T05:10:00;-3.43;85.78
65291;SHT30;51893;59.754;10.110;2023-12-28T05:12:29;-3.39;85.59
65291;SHT30;51893;59.754;10.110;2023-12-28T05:15:10;-3.36;85.40
65291;SHT30;51893;59.754;10.110;2023-12-28T05:17:38;-3.33;85.18
65291;SHT30;51893;59.754;10.110;2023-12-28T05:20:07;-3.35;85.19
65291;SHT30;51893;59.754;10.110;2023-12-28T05:22:35;-3.35;85.26
65291;SHT30;51893;59.754;10.110;2023-12-28T05:25:04;-3.34;85.31
65291;SHT30;51893;59.754;10.110;2023-12-28T05:27:32;-3.32;85.38
65291;SHT30;51893;59.754;10.110;2023-12-28T05:30:00;-3.28;85.46
65291;SHT30;51893;59.754;10.110;2023-12-28T05:32:28;-3.21;85.50
65291;SHT30;51893;59.754;10.110;2023-12-28T05:34:56;-3.16;85.60
65291;SHT30;51893;59.754;10.110;2023-12-28T05:37:24;-3.16;85.61
65291;SHT30;51893;59.754;10.110;2023-12-28T05:39:51;-3.18;85.53
65291;SHT30;51893;59.754;10.110;2023-12-28T05:42:20;-3.14;85.53
65291;SHT30;51893;59.754;10.110;2023-12-28T05:44:48;-3.10;85.59
65291;SHT30;51893;59.754;10.110;2023-12-28T05:47:19;-3.09;85.70
65291;SHT30;51893;59.754;10.110;2023-12-28T05:49:47;-3.05;85.83
65291;SHT30;51893;59.754;10.110;2023-12-28T05:52:16;-3.12;85.89
65291;SHT30;51893;59.754;10.110;2023-12-28T05:54:47;-3.14;86.11
65291;SHT30;51893;59.754;10.110;2023-12-28T05:57:19;-3.14;86.45
65291;SHT30;51893;59.754;10.110;2023-12-28T05:59:48;-3.14;86.49
65291;SHT30;51893;59.754;10.110;2023-12-28T06:02:17;-3.10;86.56
65291;SHT30;51893;59.754;10.110;2023-12-28T06:04:45;-3.11;86.73
65291;SHT30;51893;59.754;10.110;2023-12-28T06:07:13;-3.09;86.99
65291;SHT30;51893;59.754;10.110;2023-12-28T06:09:42;-3.04;87.06
65291;SHT30;51893;59.754;10.110;2023-12-28T06:12:10;-2.96;87.06
65291;SHT30;51893;59.754;10.110;2023-12-28T06:14:38;-2.89;87.10
65291;SHT30;51893;59.754;10.110;2023-12-28T06:17:07;-2.85;87.03
65291;SHT30;51893;59.754;10.110;2023-12-28T06:19:35;-2.91;86.74
65291;SHT30;51893;59.754;10.110;2023-12-28T06:22:03;-2.99;86.59
65291;SHT30;51893;59.754;10.110;2023-12-28T06:24:31;-3.11;86.47
65291;SHT30;51893;59.754;10.110;2023-12-28T06:26:59;-3.21;86.34
65291;SHT30;51893;59.754;10.110;2023-12-28T06:29:28;-3.26;86.30
65291;SHT30;51893;59.754;10.110;2023-12-28T06:31:57;-3.27;86.30
65291;SHT30;51893;59.754;10.110;2023-12-28T06:34:25;-3.30;86.23
65291;SHT30;51893;59.754;10.110;2023-12-28T06:36:55;-3.38;86.43
65291;SHT30;51893;59.754;10.110;2023-12-28T06:39:23;-3.41;86.52
65291;SHT30;51893;59.754;10.110;2023-12-28T06:41:51;-3.44;86.50
65291;SHT30;51893;59.754;10.110;2023-12-28T06:44:19;-3.47;86.56
65291;SHT30;51893;59.754;10.110;2023-12-28T06:46:50;-3.50;86.50
65291;SHT30;51893;59.754;10.110;2023-12-28T06:49:17;-3.53;86.57
65291;SHT30;51893;59.754;10.110;2023-12-28T06:51:45;-3.51;86.78
65291;SHT30;51893;59.754;10.110;2023-12-28T06:54:14;-3.47;86.80
65291;SHT30;51893;59.754;10.110;2023-12-28T06:56:44;-3.47;86.67
65291;SHT30;51893;59.754;10.110;2023-12-28T06:59:12;-3.49;86.59
65291;SHT30;51893;59.754;10.110;2023-12-28T07:01:41;-3.51;86.48
65291;SHT30;51893;59.754;10.110;2023-12-28T07:04:11;-3.51;86.40
65291;SHT30;51893;59.754;10.110;2023-12-28T07:06:40;-3.53;86.35
65291;SHT30;51893;59.754;10.110;2023-12-28T07:09:08;-3.58;86.40
65291;SHT30;51893;59.754;10.110;2023-12-28T07:11:36;-3.61;86.46
65291;SHT30;51893;59.754;10.110;2023-12-28T07:14:04;-3.61;86.50
65291;SHT30;51893;59.754;10.110;2023-12-28T07:16:32;-3.63;86.52
65291;SHT30;51893;59.754;10.110;2023-12-28T07:19:02;-3.62;86.59
65291;SHT30;51893;59.754;10.110;2023-12-28T07:21:32;-3.58;86.57
65291;SHT30;51893;59.754;10.110;2023-12-28T07:24:02;-3.53;86.51
65291;SHT30;51893;59.754;10.110;2023-12-28T07:26:31;-3.51;86.46
65291;SHT30;51893;59.754;10.110;2023-12-28T07:29:03;-3.53;86.39
65291;SHT30;51893;59.754;10.110;2023-12-28T07:31:33;-3.53;86.40
65291;SHT30;51893;59.754;10.110;2023-12-28T07:34:01;-3.54;86.40
65291;SHT30;51893;59.754;10.110;2023-12-28T07:36:29;-3.55;86.40
65291;SHT30;51893;59.754;10.110;2023-12-28T07:38:57;-3.52;86.40
65291;SHT30;51893;59.754;10.110;2023-12-28T07:41:26;-3.49;86.40
65291;SHT30;51893;59.754;10.110;2023-12-28T07:43:55;-3.45;86.32
65291;SHT30;51893;59.754;10.110;2023-12-28T07:46:23;-3.41;86.23
65291;SHT30;51893;59.754;10.110;2023-12-28T07:48:51;-3.39;86.13
65291;SHT30;51893;59.754;10.110;2023-12-28T07:51:19;-3.40;86.10
65291;SHT30;51893;59.754;10.110;2023-12-28T07:53:48;-3.47;86.00
65291;SHT30;51893;59.754;10.110;2023-12-28T07:56:16;-3.52;86.12
65291;SHT30;51893;59.754;10.110;2023-12-28T07:58:44;-3.52;86.19
65291;SHT30;51893;59.754;10.110;2023-12-28T08:01:12;-3.49;86.20
65291;SHT30;51893;59.754;10.110;2023-12-28T08:03:41;-3.48;86.12
65291;SHT30;51893;59.754;10.110;2023-12-28T08:06:09;-3.49;86.12
65291;SHT30;51893;59.754;10.110;2023-12-28T08:08:40;-3.52;86.11
65291;SHT30;51893;59.754;10.110;2023-12-28T08:11:08;-3.49;86.13
65291;SHT30;51893;59.754;10.110;2023-12-28T08:13:36;-3.47;86.10
65291;SHT30;51893;59.754;10.110;2023-12-28T08:16:04;-3.46;86.04
65291;SHT30;51893;59.754;10.110;2023-12-28T08:18:33;-3.49;86.00
65291;SHT30;51893;59.754;10.110;2023-12-28T08:21:01;-3.48;86.00
65291;SHT30;51893;59.754;10.110;2023-12-28T08:23:30;-3.45;85.92
65291;SHT30;51893;59.754;10.110;2023-12-28T08:25:58;-3.42;85.90
65291;SHT30;51893;59.754;10.110;2023-12-28T08:28:26;-3.40;85.89
65291;SHT30;51893;59.754;10.110;2023-12-28T08:31:03;-3.38;85.81
65291;SHT30;51893;59.754;10.110;2023-12-28T08:33:32;-3.37;85.79
65291;SHT30;51893;59.754;10.110;2023-12-28T08:36:00;-3.37;85.75
65291;SHT30;51893;59.754;10.110;2023-12-28T08:38:28;-3.38;85.75
65291;SHT30;51893;59.754;10.110;2023-12-28T08:40:56;-3.36;85.70
65291;SHT30;51893;59.754;10.110;2023-12-28T08:43:26;-3.34;85.68
65291;SHT30;51893;59.754;10.110;2023-12-28T08:45:55;-3.32;85.61
65291;SHT30;51893;59.754;10.110;2023-12-28T08:48:23;-3.30;85.66
65291;SHT30;51893;59.754;10.110;2023-12-28T08:50:51;-3.31;85.64
65291;SHT30;51893;59.754;10.110;2023-12-28T08:53:19;-3.32;85.71
65291;SHT30;51893;59.754;10.110;2023-12-28T08:55:47;-3.29;85.80
65291;SHT30;51893;59.754;10.110;2023-12-28T08:58:15;-3.27;85.78
65291;SHT30;51893;59.754;10.110;2023-12-28T09:00:44;-3.26;85.76
65291;SHT30;51893;59.754;10.110;2023-12-28T09:03:14;-3.25;85.78
65291;SHT30;51893;59.754;10.110;2023-12-28T09:05:42;-3.26;85.74
65291;SHT30;51893;59.754;10.110;2023-12-28T09:08:10;-3.26;85.71
65291;SHT30;51893;59.754;10.110;2023-12-28T09:10:40;-3.24;85.71
65291;SHT30;51893;59.754;10.110;2023-12-28T09:13:14;-3.21;85.70
65291;SHT30;51893;59.754;10.110;2023-12-28T09:15:44;-3.21;85.66
65291;SHT30;51893;59.754;10.110;2023-12-28T09:18:13;-3.18;85.61
65291;SHT30;51893;59.754;10.110;2023-12-28T09:20:41;-3.18;85.58
65291;SHT30;51893;59.754;10.110;2023-12-28T09:23:09;-3.17;85.56
65291;SHT30;51893;59.754;10.110;2023-12-28T09:25:40;-3.14;85.50
65291;SHT30;51893;59.754;10.110;2023-12-28T09:28:08;-3.11;85.50
65291;SHT30;51893;59.754;10.110;2023-12-28T09:30:36;-3.08;85.47
65291;SHT30;51893;59.754;10.110;2023-12-28T09:33:04;-3.05;85.42
65291;SHT30;51893;59.754;10.110;2023-12-28T09:35:33;-3.04;85.40
65291;SHT30;51893;59.754;10.110;2023-12-28T09:38:01;-3.05;85.40
65291;SHT30;51893;59.754;10.110;2023-12-28T09:40:29;-3.06;85.40
65291;SHT30;51893;59.754;10.110;2023-12-28T09:43:06;-3.05;85.40
65291;SHT30;51893;59.754;10.110;2023-12-28T09:45:54;-2.99;85.35
65291;SHT30;51893;59.754;10.110;2023-12-28T09:48:23;-2.97;85.28
65291;SHT30;51893;59.754;10.110;2023-12-28T09:50:54;-2.96;85.20
65291;SHT30;51893;59.754;10.110;2023-12-28T09:53:23;-2.97;85.13
65291;SHT30;51893;59.754;10.110;2023-12-28T09:55:52;-2.99;85.09
65291;SHT30;51893;59.754;10.110;2023-12-28T09:58:21;-3.00;85.10
65291;SHT30;51893;59.754;10.110;2023-12-28T10:00:50;-2.98;85.14
65291;SHT30;51893;59.754;10.110;2023-12-28T10:03:20;-2.98;85.14
65291;SHT30;51893;59.754;10.110;2023-12-28T10:05:48;-2.94;85.09
65291;SHT30;51893;59.754;10.110;2023-12-28T10:08:16;-2.95;84.97
65291;SHT30;51893;59.754;10.110;2023-12-28T10:10:48;-2.94;84.91
65291;SHT30;51893;59.754;10.110;2023-12-28T10:13:21;-2.92;84.85
65291;SHT30;51893;59.754;10.110;2023-12-28T10:15:49;-2.90;84.69
65291;SHT30;51893;59.754;10.110;2023-12-28T10:18:18;-2.88;84.49
65291;SHT30;51893;59.754;10.110;2023-12-28T10:20:50;-2.83;84.35
65291;SHT30;51893;59.754;10.110;2023-12-28T10:23:20;-2.78;84.18
65291;SHT30;51893;59.754;10.110;2023-12-28T10:25:50;-2.71;84.02
65291;SHT30;51893;59.754;10.110;2023-12-28T10:28:21;-2.70;83.78
65291;SHT30;51893;59.754;10.110;2023-12-28T10:30:53;-2.68;83.50
65291;SHT30;51893;59.754;10.110;2023-12-28T10:33:24;-2.67;83.43
65291;SHT30;51893;59.754;10.110;2023-12-28T10:35:53;-2.62;83.55
65291;SHT30;51893;59.754;10.110;2023-12-28T10:38:28;-2.56;83.44
65291;SHT30;51893;59.754;10.110;2023-12-28T10:41:07;-2.49;83.22
65291;SHT30;51893;59.754;10.110;2023-12-28T10:43:46;-2.44;82.88
65291;SHT30;51893;59.754;10.110;2023-12-28T10:46:26;-2.42;82.41
65291;SHT30;51893;59.754;10.110;2023-12-28T10:48:59;-2.42;82.05
65291;SHT30;51893;59.754;10.110;2023-12-28T10:51:34;-2.38;81.61
65291;SHT30;51893;59.754;10.110;2023-12-28T10:57:23;-2.27;81.35
65291;SHT30;51893;59.754;10.110;2023-12-28T11:00:10;-2.24;81.29
65291;SHT30;51893;59.754;10.110;2023-12-28T11:02:43;-2.20;81.23
65291;SHT30;51893;59.754;10.110;2023-12-28T11:05:15;-2.18;81.21
65291;SHT30;51893;59.754;10.110;2023-12-28T11:07:45;-2.12;81.27
65291;SHT30;51893;59.754;10.110;2023-12-28T11:10:16;-2.07;81.13
65291;SHT30;51893;59.754;10.110;2023-12-28T11:12:47;-2.05;80.82
65291;SHT30;51893;59.754;10.110;2023-12-28T11:15:17;-2.06;80.78
65291;SHT30;51893;59.754;10.110;2023-12-28T11:17:49;-2.08;80.72
65291;SHT30;51893;59.754;10.110;2023-12-28T11:20:17;-2.02;80.70
65291;SHT30;51893;59.754;10.110;2023-12-28T11:22:47;-1.96;80.62
65291;SHT30;51893;59.754;10.110;2023-12-28T11:25:17;-1.94;80.41
65291;SHT30;51893;59.754;10.110;2023-12-28T11:27:46;-1.93;79.87
65291;SHT30;51893;59.754;10.110;2023-12-28T11:30:15;-1.93;79.88
65291;SHT30;51893;59.754;10.110;2023-12-28T11:32:43;-1.95;79.71
65291;SHT30;51893;59.754;10.110;2023-12-28T11:35:12;-2.02;79.51
65291;SHT30;51893;59.754;10.110;2023-12-28T11:37:44;-2.07;79.46
65291;SHT30;51893;59.754;10.110;2023-12-28T11:40:19;-2.13;78.92
65291;SHT30;51893;59.754;10.110;2023-12-28T11:42:48;-2.17;79.24
65291;SHT30;51893;59.754;10.110;2023-12-28T11:45:20;-2.19;79.43
65291;SHT30;51893;59.754;10.110;2023-12-28T11:48:03;-2.22;79.42
65291;SHT30;51893;59.754;10.110;2023-12-28T11:50:33;-2.29;79.24
65291;SHT30;51893;59.754;10.110;2023-12-28T11:53:01;-2.37;79.07
65291;SHT30;51893;59.754;10.110;2023-12-28T11:55:30;-2.37;79.22
65291;SHT30;51893;59.754;10.110;2023-12-28T11:57:58;-2.36;79.09
65291;SHT30;51893;59.754;10.110;2023-12-28T12:00:26;-2.37;78.84
65291;SHT30;51893;59.754;10.110;2023-12-28T12:02:55;-2.37;79.05
65291;SHT30;51893;59.754;10.110;2023-12-28T12:05:27;-2.40;79.06
65291;SHT30;51893;59.754;10.110;2023-12-28T12:07:55;-2.43;79.04
65291;SHT30;51893;59.754;10.110;2023-12-28T12:10:24;-2.46;79.17
65291;SHT30;51893;59.754;10.110;2023-12-28T12:12:53;-2.48;79.39
65291;SHT30;51893;59.754;10.110;2023-12-28T12:15:22;-2.46;79.40
65291;SHT30;51893;59.754;10.110;2023-12-28T12:17:50;-2.42;79.56
65291;SHT30;51893;59.754;10.110;2023-12-28T12:20:19;-2.39;79.50
65291;SHT30;51893;59.754;10.110;2023-12-28T12:22:47;-2.45;79.27
65291;SHT30;51893;59.754;10.110;2023-12-28T12:25:16;-2.46;79.46
65291;SHT30;51893;59.754;10.110;2023-12-28T12:27:47;-2.48;79.66
65291;SHT30;51893;59.754;10.110;2023-12-28T12:30:16;-2.51;79.70
65291;SHT30;51893;59.754;10.110;2023-12-28T12:32:44;-2.55;79.70
65291;SHT30;51893;59.754;10.110;2023-12-28T12:35:12;-2.58;79.81
65291;SHT30;51893;59.754;10.110;2023-12-28T12:37:44;-2.58;80.00
65291;SHT30;51893;59.754;10.110;2023-12-28T12:40:14;-2.58;80.09
65291;SHT30;51893;59.754;10.110;2023-12-28T12:42:44;-2.57;80.18
65291;SHT30;51893;59.754;10.110;2023-12-28T12:45:21;-2.57;80.21
65291;SHT30;51893;59.754;10.110;2023-12-28T12:47:50;-2.59;80.08
65291;SHT30;51893;59.754;10.110;2023-12-28T12:50:20;-2.60;80.15
65291;SHT30;51893;59.754;10.110;2023-12-28T12:52:49;-2.58;80.11
65291;SHT30;51893;59.754;10.110;2023-12-28T12:55:18;-2.56;80.15
65291;SHT30;51893;59.754;10.110;2023-12-28T12:57:46;-2.55;80.02
65291;SHT30;51893;59.754;10.110;2023-12-28T13:00:14;-2.54;79.97
65291;SHT30;51893;59.754;10.110;2023-12-28T13:02:42;-2.55;80.00
65291;SHT30;51893;59.754;10.110;2023-12-28T13:05:12;-2.56;79.82
65291;SHT30;51893;59.754;10.110;2023-12-28T13:07:41;-2.57;79.79
65291;SHT30;51893;59.754;10.110;2023-12-28T13:10:09;-2.59;79.87
65291;SHT30;51893;59.754;10.110;2023-12-28T13:12:38;-2.62;79.97
65291;SHT30;51893;59.754;10.110;2023-12-28T13:15:07;-2.64;80.09
65291;SHT30;51893;59.754;10.110;2023-12-28T13:17:37;-2.69;80.10
65291;SHT30;51893;59.754;10.110;2023-12-28T13:20:05;-2.68;80.14
65291;SHT30;51893;59.754;10.110;2023-12-28T13:22:37;-2.70;80.11
65291;SHT30;51893;59.754;10.110;2023-12-28T13:25:08;-2.71;80.17
65291;SHT30;51893;59.754;10.110;2023-12-28T13:27:36;-2.71;80.13
65291;SHT30;51893;59.754;10.110;2023-12-28T13:30:05;-2.73;80.01
65291;SHT30;51893;59.754;10.110;2023-12-28T13:32:33;-2.74;79.94
65291;SHT30;51893;59.754;10.110;2023-12-28T13:35:02;-2.73;79.89
65291;SHT30;51893;59.754;10.110;2023-12-28T13:37:31;-2.75;79.81
65291;SHT30;51893;59.754;10.110;2023-12-28T13:39:59;-2.81;79.77
65291;SHT30;51893;59.754;10.110;2023-12-28T13:42:28;-2.89;79.86
65291;SHT30;51893;59.754;10.110;2023-12-28T13:44:56;-2.91;79.93
65291;SHT30;51893;59.754;10.110;2023-12-28T13:47:24;-2.91;80.00
65291;SHT30;51893;59.754;10.110;2023-12-28T13:49:52;-2.89;80.01
65291;SHT30;51893;59.754;10.110;2023-12-28T13:52:21;-2.92;80.03
65291;SHT30;51893;59.754;10.110;2023-12-28T13:54:50;-2.95;80.05
65291;SHT30;51893;59.754;10.110;2023-12-28T13:57:17;-2.98;80.06
65291;SHT30;51893;59.754;10.110;2023-12-28T13:59:47;-3.00;80.03
65291;SHT30;51893;59.754;10.110;2023-12-28T14:02:15;-3.03;80.00
65291;SHT30;51893;59.754;10.110;2023-12-28T14:04:43;-3.05;79.94
65291;SHT30;51893;59.754;10.110;2023-12-28T14:07:11;-3.09;79.96
65291;SHT30;51893;59.754;10.110;2023-12-28T14:09:43;-3.09;79.99
65291;SHT30;51893;59.754;10.110;2023-12-28T14:12:11;-3.04;79.96
65291;SHT30;51893;59.754;10.110;2023-12-28T14:14:40;-2.98;79.80
65291;SHT30;51893;59.754;10.110;2023-12-28T14:17:08;-3.00;79.64
65291;SHT30;51893;59.754;10.110;2023-12-28T14:19:36;-3.05;79.68
65291;SHT30;51893;59.754;10.110;2023-12-28T14:22:04;-3.17;79.84
65291;SHT30;51893;59.754;10.110;2023-12-28T14:24:34;-3.25;79.90
65291;SHT30;51893;59.754;10.110;2023-12-28T14:27:02;-3.30;79.98
65291;SHT30;51893;59.754;10.110;2023-12-28T14:29:31;-3.39;80.19
65291;SHT30;51893;59.754;10.110;2023-12-28T14:32:00;-3.41;80.30
65291;SHT30;51893;59.754;10.110;2023-12-28T14:34:28;-3.41;80.34
65291;SHT30;51893;59.754;10.110;2023-12-28T14:36:59;-3.35;80.36
65291;SHT30;51893;59.754;10.110;2023-12-28T14:39:29;-3.36;80.00
65291;SHT30;51893;59.754;10.110;2023-12-28T14:41:57;-3.40;79.69
65291;SHT30;51893;59.754;10.110;2023-12-28T14:44:37;-3.46;79.86
65291;SHT30;51893;59.754;10.110;2023-12-28T14:47:05;-3.41;80.01
65291;SHT30;51893;59.754;10.110;2023-12-28T14:49:35;-3.47;80.03
65291;SHT30;51893;59.754;10.110;2023-12-28T14:52:03;-3.53;80.20
65291;SHT30;51893;59.754;10.110;2023-12-28T14:54:31;-3.60;79.94
65291;SHT30;51893;59.754;10.110;2023-12-28T14:56:59;-3.69;79.54
65291;SHT30;51893;59.754;10.110;2023-12-28T14:59:29;-3.79;79.22
65291;SHT30;51893;59.754;10.110;2023-12-28T15:01:57;-3.83;78.90
65291;SHT30;51893;59.754;10.110;2023-12-28T15:04:26;-3.88;78.78
65291;SHT30;51893;59.754;10.110;2023-12-28T15:06:54;-3.91;78.66
65291;SHT30;51893;59.754;10.110;2023-12-28T15:09:23;-4.00;78.58
65291;SHT30;51893;59.754;10.110;2023-12-28T15:11:51;-4.08;78.14
65291;SHT30;51893;59.754;10.110;2023-12-28T15:14:20;-4.18;77.67
65291;SHT30;51893;59.754;10.110;2023-12-28T15:16:48;-4.29;77.76
65291;SHT30;51893;59.754;10.110;2023-12-28T15:19:17;-4.34;77.88
65291;SHT30;51893;59.754;10.110;2023-12-28T15:21:47;-4.41;77.76
65291;SHT30;51893;59.754;10.110;2023-12-28T15:24:16;-4.49;77.67
65291;SHT30;51893;59.754;10.110;2023-12-28T15:26:45;-4.61;77.78
65291;SHT30;51893;59.754;10.110;2023-12-28T15:29:13;-4.72;77.93
65291;SHT30;51893;59.754;10.110;2023-12-28T15:31:43;-4.74;77.93